Observations for BOSCOMBE DOWN, United Kingdom (EGDM)

EGDM 260450Z AUTO 33004KT 0250 FG BKN001/// 13/12 Q1018 
EGDM 260350Z AUTO 30006KT 3000 FEW001/// 13/12 Q1018
EGDM 260250Z AUTO 03001KT 6000 BR NCD 15/14 Q1018   
EGDM 260150Z AUTO 33004KT 8000 BR NCD 15/14 Q1019   
EGDM 260050Z AUTO 31004KT 9000 HZ NCD 15/14 Q1019   
EGDM 252350Z AUTO 04003KT 9999 NCD 17/15 Q1019  
EGDM 252250Z AUTO 31004KT 9999 NCD 17/15 Q1019  
EGDM 252150Z AUTO 24005KT 9999 NCD 18/14 Q1019  
EGDM 252050Z AUTO 20004KT 9999 NCD 19/14 Q1019  
EGDM 251950Z AUTO 21006KT 9999 NCD 20/15 Q1019  
EGDM 251850Z AUTO 18004KT 9999 NCD 22/15 Q1018  
EGDM 251750Z AUTO 17008KT 9999 NCD 25/14 Q1018  
EGDM 251650Z AUTO 19010KT 9999 NCD 26/14 Q1018  
EGDM 251550Z AUTO 19011KT 9999 NCD 28/14 Q1018  
EGDM 251450Z AUTO 18011KT 9999 NCD 30/14 Q1017  
EGDM 251350Z AUTO 18009KT 9999 NCD 30/15 Q1017  
EGDM 251250Z AUTO 19011KT 9999 NCD 29/14 Q1018  
EGDM 251150Z AUTO 19007KT 9999 NCD 28/16 Q1018  
EGDM 251050Z AUTO 17005KT 9999 NCD 27/17 Q1018  
EGDM 250950Z AUTO 20006KT 9999 FEW150/// 24/16 Q1018
EGDM 250850Z AUTO 18006KT 9999 FEW130/// 23/15 Q1018
EGDM 250750Z AUTO 14010KT 9999 FEW100/// BKN160/// 21/15 Q1017  
EGDM 250650Z AUTO 10004KT 9999 FEW130/// BKN160/// 19/13 Q1017  
EGDM 250550Z AUTO 11006KT 9999 BKN100/// SCT140/// 17/12 Q1016  
EGDM 250450Z AUTO 08009KT 9999 FEW090/// BKN140/// 17/12 Q1016